Aviation Digital Data Service (ADDS)

Output produced by METARs form (1049 UTC 19 February 2019)
found at http://www.aviationweather.gov/metar/data/
 
METAR text: ZYHB 191000Z 20002MPS 3000 FU SCT026 00/M12 Q1016 NOSIG
Conditions at: ZYHB (HARBIN , CN) observed 1000 UTC 19 February 2019
Temperature: 0.0°C (32°F)
Dewpoint: -12.0°C (10°F) [RH = 40%]
Pressure (altimeter): 30.00 inches Hg (1016.0 mb)
Winds: from the SSW (200 degrees) at 5 MPH (4 knots; 2.1 m/s)
Visibility: 1.86 miles (2.99 km)
Ceiling: at least 12,000 feet AGL
Clouds: scattered clouds at 2600 feet AGL
Weather: FU  (smoke)

METAR text: ZYHB 190900Z 19002MPS 4000 FU SCT026 01/M13 Q1016 NOSIG
Conditions at: ZYHB (HARBIN , CN) observed 0900 UTC 19 February 2019
Temperature: 1.0°C (34°F)
Dewpoint: -13.0°C ( 9°F) [RH = 34%]
Pressure (altimeter): 30.00 inches Hg (1016.0 mb)
Winds: from the S (190 degrees) at 5 MPH (4 knots; 2.1 m/s)
Visibility: 2.49 miles (4.01 km)
Ceiling: at least 12,000 feet AGL
Clouds: scattered clouds at 2600 feet AGL
Weather: FU  (smoke)

METAR text: ZYHB 190800Z 20002MPS 6000 SCT026 03/M13 Q1016 NOSIG
Conditions at: ZYHB (HARBIN , CN) observed 0800 UTC 19 February 2019
Temperature: 3.0°C (37°F)
Dewpoint: -13.0°C ( 9°F) [RH = 30%]
Pressure (altimeter): 30.00 inches Hg (1016.0 mb)
Winds: from the SSW (200 degrees) at 5 MPH (4 knots; 2.1 m/s)
Visibility: 4 miles ( 6 km)
Ceiling: at least 12,000 feet AGL
Clouds: scattered clouds at 2600 feet AGL
Weather: no significant weather observed at this time

METAR text: ZYHB 190700Z 19003MPS 6000 SCT026 03/M13 Q1016 NOSIG
Conditions at: ZYHB (HARBIN , CN) observed 0700 UTC 19 February 2019
Temperature: 3.0°C (37°F)
Dewpoint: -13.0°C ( 9°F) [RH = 30%]
Pressure (altimeter): 30.00 inches Hg (1016.0 mb)
Winds: from the S (190 degrees) at 7 MPH (6 knots; 3.1 m/s)
Visibility: 4 miles ( 6 km)
Ceiling: at least 12,000 feet AGL
Clouds: scattered clouds at 2600 feet AGL
Weather: no significant weather observed at this time

METAR text: ZYHB 190600Z 18003MPS 6000 SCT026 03/M13 Q1016 NOSIG
Conditions at: ZYHB (HARBIN , CN) observed 0600 UTC 19 February 2019
Temperature: 3.0°C (37°F)
Dewpoint: -13.0°C ( 9°F) [RH = 30%]
Pressure (altimeter): 30.00 inches Hg (1016.0 mb)
Winds: from the S (180 degrees) at 7 MPH (6 knots; 3.1 m/s)
Visibility: 4 miles ( 6 km)
Ceiling: at least 12,000 feet AGL
Clouds: scattered clouds at 2600 feet AGL
Weather: no significant weather observed at this time

METAR text: ZYHB 190500Z 18002MPS 090V250 7000 SCT026 03/M13 Q1016 NOSIG
Conditions at: ZYHB (HARBIN , CN) observed 0500 UTC 19 February 2019
Temperature: 3.0°C (37°F)
Dewpoint: -13.0°C ( 9°F) [RH = 30%]
Pressure (altimeter): 30.00 inches Hg (1016.0 mb)
Winds: from the S (180 degrees) at 5 MPH (4 knots; 2.1 m/s)
Visibility: 4 miles ( 7 km)
Ceiling: at least 12,000 feet AGL
Clouds: scattered clouds at 2600 feet AGL
Weather: no significant weather observed at this time

METAR text: ZYHB 190400Z VRB01MPS 6000 SCT020 03/M12 Q1016 NOSIG
Conditions at: ZYHB (HARBIN , CN) observed 0400 UTC 19 February 2019
Temperature: 3.0°C (37°F)
Dewpoint: -12.0°C (10°F) [RH = 32%]
Pressure (altimeter): 30.00 inches Hg (1016.0 mb)
Winds: variable direction winds at 2 MPH (2 knots; 1.0 m/s)
Visibility: 4 miles ( 6 km)
Ceiling: at least 12,000 feet AGL
Clouds: scattered clouds at 2000 feet AGL
Weather: no significant weather observed at this time

METAR text: ZYHB 190300Z 25003MPS 200V290 5000 FU SCT020 02/M12 Q1017 NOSIG
Conditions at: ZYHB (HARBIN , CN) observed 0300 UTC 19 February 2019
Temperature: 2.0°C (36°F)
Dewpoint: -12.0°C (10°F) [RH = 35%]
Pressure (altimeter): 30.03 inches Hg (1017.0 mb)
Winds: from the WSW (250 degrees) at 7 MPH (6 knots; 3.1 m/s)
Visibility: 3 miles ( 5 km)
Ceiling: at least 12,000 feet AGL
Clouds: scattered clouds at 2000 feet AGL
Weather: FU  (smoke)

METAR text: ZYHB 190200Z 23004MPS 5000 FU NSC 01/M13 Q1017 NOSIG
Conditions at: ZYHB (HARBIN , CN) observed 0200 UTC 19 February 2019
Temperature: 1.0°C (34°F)
Dewpoint: -13.0°C ( 9°F) [RH = 34%]
Pressure (altimeter): 30.03 inches Hg (1017.0 mb)
Winds: from the SW (230 degrees) at 9 MPH (8 knots; 4.1 m/s)
Visibility: 3 miles ( 5 km)
Ceiling: at least 12,000 feet AGL
Clouds: sky clear below 12,000 feet AGL
Weather: FU  (smoke)

METAR text: ZYHB 190100Z 21004MPS 4000 FU NSC M00/M12 Q1017 NOSIG
Conditions at: ZYHB (HARBIN , CN) observed 0100 UTC 19 February 2019
Temperature: 0.0°C (32°F)
Dewpoint: -12.0°C (10°F) [RH = 40%]
Pressure (altimeter): 30.03 inches Hg (1017.0 mb)
Winds: from the SSW (210 degrees) at 9 MPH (8 knots; 4.1 m/s)
Visibility: 2.49 miles (4.01 km)
Ceiling: at least 12,000 feet AGL
Clouds: sky clear below 12,000 feet AGL
Weather: FU  (smoke)

METAR text: ZYHB 190000Z 19003MPS 4000 FU NSC M02/M13 Q1017 NOSIG
Conditions at: ZYHB (HARBIN , CN) observed 0000 UTC 19 February 2019
Temperature: -2.0°C (28°F)
Dewpoint: -13.0°C ( 9°F) [RH = 43%]
Pressure (altimeter): 30.03 inches Hg (1017.0 mb)
Winds: from the S (190 degrees) at 7 MPH (6 knots; 3.1 m/s)
Visibility: 2.49 miles (4.01 km)
Ceiling: at least 12,000 feet AGL
Clouds: sky clear below 12,000 feet AGL
Weather: FU  (smoke)

METAR text: ZYHB 182300Z 18003MPS 5000 FU NSC M04/M14 Q1017 NOSIG
Conditions at: ZYHB (HARBIN , CN) observed 2300 UTC 18 February 2019
Temperature: -4.0°C (25°F)
Dewpoint: -14.0°C ( 7°F) [RH = 46%]
Pressure (altimeter): 30.03 inches Hg (1017.0 mb)
Winds: from the S (180 degrees) at 7 MPH (6 knots; 3.1 m/s)
Visibility: 3 miles ( 5 km)
Ceiling: at least 12,000 feet AGL
Clouds: sky clear below 12,000 feet AGL
Weather: FU  (smoke)

METAR text: ZYHB 182200Z 18002MPS 5000 FU NSC M04/M14 Q1016 NOSIG
Conditions at: ZYHB (HARBIN , CN) observed 2200 UTC 18 February 2019
Temperature: -4.0°C (25°F)
Dewpoint: -14.0°C ( 7°F) [RH = 46%]
Pressure (altimeter): 30.00 inches Hg (1016.0 mb)
Winds: from the S (180 degrees) at 5 MPH (4 knots; 2.1 m/s)
Visibility: 3 miles ( 5 km)
Ceiling: at least 12,000 feet AGL
Clouds: sky clear below 12,000 feet AGL
Weather: FU  (smoke)

METAR text: ZYHB 182100Z 18003MPS 7000 NSC M03/M14 Q1016 NOSIG
Conditions at: ZYHB (HARBIN , CN) observed 2100 UTC 18 February 2019
Temperature: -3.0°C (27°F)
Dewpoint: -14.0°C ( 7°F) [RH = 42%]
Pressure (altimeter): 30.00 inches Hg (1016.0 mb)
Winds: from the S (180 degrees) at 7 MPH (6 knots; 3.1 m/s)
Visibility: 4 miles ( 7 km)
Ceiling: at least 12,000 feet AGL
Clouds: sky clear below 12,000 feet AGL
Weather: no significant weather observed at this time

METAR text: ZYHB 182000Z 18002MPS 7000 NSC M03/M15 Q1017 NOSIG
Conditions at: ZYHB (HARBIN , CN) observed 2000 UTC 18 February 2019
Temperature: -3.0°C (27°F)
Dewpoint: -15.0°C ( 5°F) [RH = 39%]
Pressure (altimeter): 30.03 inches Hg (1017.0 mb)
Winds: from the S (180 degrees) at 5 MPH (4 knots; 2.1 m/s)
Visibility: 4 miles ( 7 km)
Ceiling: at least 12,000 feet AGL
Clouds: sky clear below 12,000 feet AGL
Weather: no significant weather observed at this time

METAR text: ZYHB 181900Z 19004MPS 7000 NSC M03/M15 Q1017 NOSIG
Conditions at: ZYHB (HARBIN , CN) observed 1900 UTC 18 February 2019
Temperature: -3.0°C (27°F)
Dewpoint: -15.0°C ( 5°F) [RH = 39%]
Pressure (altimeter): 30.03 inches Hg (1017.0 mb)
Winds: from the S (190 degrees) at 9 MPH (8 knots; 4.1 m/s)
Visibility: 4 miles ( 7 km)
Ceiling: at least 12,000 feet AGL
Clouds: sky clear below 12,000 feet AGL
Weather: no significant weather observed at this time

METAR text: ZYHB 181800Z 20003MPS 7000 NSC M02/M16 Q1018 NOSIG
Conditions at: ZYHB (HARBIN , CN) observed 1800 UTC 18 February 2019
Temperature: -2.0°C (28°F)
Dewpoint: -16.0°C ( 3°F) [RH = 33%]
Pressure (altimeter): 30.06 inches Hg (1018.0 mb)
Winds: from the SSW (200 degrees) at 7 MPH (6 knots; 3.1 m/s)
Visibility: 4 miles ( 7 km)
Ceiling: at least 12,000 feet AGL
Clouds: sky clear below 12,000 feet AGL
Weather: no significant weather observed at this time

METAR text: ZYHB 181700Z 21004MPS 7000 NSC M02/M16 Q1018 NOSIG
Conditions at: ZYHB (HARBIN , CN) observed 1700 UTC 18 February 2019
Temperature: -2.0°C (28°F)
Dewpoint: -16.0°C ( 3°F) [RH = 33%]
Pressure (altimeter): 30.06 inches Hg (1018.0 mb)
Winds: from the SSW (210 degrees) at 9 MPH (8 knots; 4.1 m/s)
Visibility: 4 miles ( 7 km)
Ceiling: at least 12,000 feet AGL
Clouds: sky clear below 12,000 feet AGL
Weather: no significant weather observed at this time

METAR text: ZYHB 181600Z 21005MPS 7000 NSC M02/M16 Q1018 NOSIG
Conditions at: ZYHB (HARBIN , CN) observed 1600 UTC 18 February 2019
Temperature: -2.0°C (28°F)
Dewpoint: -16.0°C ( 3°F) [RH = 33%]
Pressure (altimeter): 30.06 inches Hg (1018.0 mb)
Winds: from the SSW (210 degrees) at 12 MPH (10 knots; 5.1 m/s)
Visibility: 4 miles ( 7 km)
Ceiling: at least 12,000 feet AGL
Clouds: sky clear below 12,000 feet AGL
Weather: no significant weather observed at this time

METAR text: ZYHB 181500Z 20003MPS CAVOK M03/M16 Q1018 NOSIG
Conditions at: ZYHB (HARBIN , CN) observed 1500 UTC 18 February 2019
Temperature: -3.0°C (27°F)
Dewpoint: -16.0°C ( 3°F) [RH = 36%]
Pressure (altimeter): 30.06 inches Hg (1018.0 mb)
Winds: from the SSW (200 degrees) at 7 MPH (6 knots; 3.1 m/s)
Visibility: 6 or more miles (10+ km)
Ceiling: ceiling and visibility are OK
Clouds: unknown
Weather: no significant weather observed at this time

METAR text: ZYHB 181400Z 21005MPS CAVOK M03/M16 Q1019 NOSIG
Conditions at: ZYHB (HARBIN , CN) observed 1400 UTC 18 February 2019
Temperature: -3.0°C (27°F)
Dewpoint: -16.0°C ( 3°F) [RH = 36%]
Pressure (altimeter): 30.09 inches Hg (1019.0 mb)
Winds: from the SSW (210 degrees) at 12 MPH (10 knots; 5.1 m/s)
Visibility: 6 or more miles (10+ km)
Ceiling: ceiling and visibility are OK
Clouds: unknown
Weather: no significant weather observed at this time

METAR text: ZYHB 181300Z 20004MPS CAVOK M03/M17 Q1018 NOSIG
Conditions at: ZYHB (HARBIN , CN) observed 1300 UTC 18 February 2019
Temperature: -3.0°C (27°F)
Dewpoint: -17.0°C ( 1°F) [RH = 33%]
Pressure (altimeter): 30.06 inches Hg (1018.0 mb)
Winds: from the SSW (200 degrees) at 9 MPH (8 knots; 4.1 m/s)
Visibility: 6 or more miles (10+ km)
Ceiling: ceiling and visibility are OK
Clouds: unknown
Weather: no significant weather observed at this time

METAR text: ZYHB 181200Z 19003MPS CAVOK M02/M17 Q1018 NOSIG
Conditions at: ZYHB (HARBIN , CN) observed 1200 UTC 18 February 2019
Temperature: -2.0°C (28°F)
Dewpoint: -17.0°C ( 1°F) [RH = 31%]
Pressure (altimeter): 30.06 inches Hg (1018.0 mb)
Winds: from the S (190 degrees) at 7 MPH (6 knots; 3.1 m/s)
Visibility: 6 or more miles (10+ km)
Ceiling: ceiling and visibility are OK
Clouds: unknown
Weather: no significant weather observed at this time

METAR text: ZYHB 181100Z 17003MPS CAVOK M05/M18 Q1018 NOSIG
Conditions at: ZYHB (HARBIN , CN) observed 1100 UTC 18 February 2019
Temperature: -5.0°C (23°F)
Dewpoint: -18.0°C (-0°F) [RH = 35%]
Pressure (altimeter): 30.06 inches Hg (1018.0 mb)
Winds: from the S (170 degrees) at 7 MPH (6 knots; 3.1 m/s)
Visibility: 6 or more miles (10+ km)
Ceiling: ceiling and visibility are OK
Clouds: unknown
Weather: no significant weather observed at this time

METAR text: ZYHB 181000Z 19002MPS CAVOK M02/M16 Q1018 NOSIG
Conditions at: ZYHB (HARBIN , CN) observed 1000 UTC 18 February 2019
Temperature: -2.0°C (28°F)
Dewpoint: -16.0°C ( 3°F) [RH = 33%]
Pressure (altimeter): 30.06 inches Hg (1018.0 mb)
Winds: from the S (190 degrees) at 5 MPH (4 knots; 2.1 m/s)
Visibility: 6 or more miles (10+ km)
Ceiling: ceiling and visibility are OK
Clouds: unknown
Weather: no significant weather observed at this time

METAR text: ZYHB 180900Z 22004MPS CAVOK 00/M18 Q1017 NOSIG
Conditions at: ZYHB (HARBIN , CN) observed 0900 UTC 18 February 2019
Temperature: 0.0°C (32°F)
Dewpoint: -18.0°C (-0°F) [RH = 24%]
Pressure (altimeter): 30.03 inches Hg (1017.0 mb)
Winds: from the SW (220 degrees) at 9 MPH (8 knots; 4.1 m/s)
Visibility: 6 or more miles (10+ km)
Ceiling: ceiling and visibility are OK
Clouds: unknown
Weather: no significant weather observed at this time

METAR text: ZYHB 180800Z 23007MPS CAVOK 03/M17 Q1017 NOSIG
Conditions at: ZYHB (HARBIN , CN) observed 0800 UTC 18 February 2019
Temperature: 3.0°C (37°F)
Dewpoint: -17.0°C ( 1°F) [RH = 21%]
Pressure (altimeter): 30.03 inches Hg (1017.0 mb)
Winds: from the SW (230 degrees) at 16 MPH (14 knots; 7.2 m/s)
Visibility: 6 or more miles (10+ km)
Ceiling: ceiling and visibility are OK
Clouds: unknown
Weather: no significant weather observed at this time

METAR text: ZYHB 180700Z 24007MPS CAVOK 04/M17 Q1017 NOSIG
Conditions at: ZYHB (HARBIN , CN) observed 0700 UTC 18 February 2019
Temperature: 4.0°C (39°F)
Dewpoint: -17.0°C ( 1°F) [RH = 20%]
Pressure (altimeter): 30.03 inches Hg (1017.0 mb)
Winds: from the WSW (240 degrees) at 16 MPH (14 knots; 7.2 m/s)
Visibility: 6 or more miles (10+ km)
Ceiling: ceiling and visibility are OK
Clouds: unknown
Weather: no significant weather observed at this time

METAR text: ZYHB 180600Z 25007MPS CAVOK 04/M16 Q1017 NOSIG
Conditions at: ZYHB (HARBIN , CN) observed 0600 UTC 18 February 2019
Temperature: 4.0°C (39°F)
Dewpoint: -16.0°C ( 3°F) [RH = 22%]
Pressure (altimeter): 30.03 inches Hg (1017.0 mb)
Winds: from the WSW (250 degrees) at 16 MPH (14 knots; 7.2 m/s)
Visibility: 6 or more miles (10+ km)
Ceiling: ceiling and visibility are OK
Clouds: unknown
Weather: no significant weather observed at this time

METAR text: ZYHB 180500Z 23007MPS CAVOK 04/M16 Q1018 NOSIG
Conditions at: ZYHB (HARBIN , CN) observed 0500 UTC 18 February 2019
Temperature: 4.0°C (39°F)
Dewpoint: -16.0°C ( 3°F) [RH = 22%]
Pressure (altimeter): 30.06 inches Hg (1018.0 mb)
Winds: from the SW (230 degrees) at 16 MPH (14 knots; 7.2 m/s)
Visibility: 6 or more miles (10+ km)
Ceiling: ceiling and visibility are OK
Clouds: unknown
Weather: no significant weather observed at this time

METAR text: ZYHB 180400Z 23007MPS CAVOK 02/M16 Q1018 NOSIG
Conditions at: ZYHB (HARBIN , CN) observed 0400 UTC 18 February 2019
Temperature: 2.0°C (36°F)
Dewpoint: -16.0°C ( 3°F) [RH = 25%]
Pressure (altimeter): 30.06 inches Hg (1018.0 mb)
Winds: from the SW (230 degrees) at 16 MPH (14 knots; 7.2 m/s)
Visibility: 6 or more miles (10+ km)
Ceiling: ceiling and visibility are OK
Clouds: unknown
Weather: no significant weather observed at this time

METAR text: ZYHB 180300Z 23008MPS CAVOK M00/M17 Q1019 NOSIG
Conditions at: ZYHB (HARBIN , CN) observed 0300 UTC 18 February 2019
Temperature: 0.0°C (32°F)
Dewpoint: -17.0°C ( 1°F) [RH = 26%]
Pressure (altimeter): 30.09 inches Hg (1019.0 mb)
Winds: from the SW (230 degrees) at 18 MPH (16 knots; 8.2 m/s)
Visibility: 6 or more miles (10+ km)
Ceiling: ceiling and visibility are OK
Clouds: unknown
Weather: no significant weather observed at this time

METAR text: ZYHB 180200Z 21006MPS CAVOK M02/M15 Q1019 NOSIG
Conditions at: ZYHB (HARBIN , CN) observed 0200 UTC 18 February 2019
Temperature: -2.0°C (28°F)
Dewpoint: -15.0°C ( 5°F) [RH = 36%]
Pressure (altimeter): 30.09 inches Hg (1019.0 mb)
Winds: from the SSW (210 degrees) at 14 MPH (12 knots; 6.2 m/s)
Visibility: 6 or more miles (10+ km)
Ceiling: ceiling and visibility are OK
Clouds: unknown
Weather: no significant weather observed at this time

METAR text: ZYHB 180100Z 22007MPS CAVOK M05/M16 Q1019 NOSIG
Conditions at: ZYHB (HARBIN , CN) observed 0100 UTC 18 February 2019
Temperature: -5.0°C (23°F)
Dewpoint: -16.0°C ( 3°F) [RH = 42%]
Pressure (altimeter): 30.09 inches Hg (1019.0 mb)
Winds: from the SW (220 degrees) at 16 MPH (14 knots; 7.2 m/s)
Visibility: 6 or more miles (10+ km)
Ceiling: ceiling and visibility are OK
Clouds: unknown
Weather: no significant weather observed at this time

METAR text: ZYHB 180000Z 21005MPS CAVOK M07/M17 Q1019 NOSIG
Conditions at: ZYHB (HARBIN , CN) observed 0000 UTC 18 February 2019
Temperature: -7.0°C (19°F)
Dewpoint: -17.0°C ( 1°F) [RH = 45%]
Pressure (altimeter): 30.09 inches Hg (1019.0 mb)
Winds: from the SSW (210 degrees) at 12 MPH (10 knots; 5.1 m/s)
Visibility: 6 or more miles (10+ km)
Ceiling: ceiling and visibility are OK
Clouds: unknown
Weather: no significant weather observed at this time

METAR text: ZYHB 172300Z 20005MPS CAVOK M09/M17 Q1018 NOSIG
Conditions at: ZYHB (HARBIN , CN) observed 2300 UTC 17 February 2019
Temperature: -9.0°C (16°F)
Dewpoint: -17.0°C ( 1°F) [RH = 52%]
Pressure (altimeter): 30.06 inches Hg (1018.0 mb)
Winds: from the SSW (200 degrees) at 12 MPH (10 knots; 5.1 m/s)
Visibility: 6 or more miles (10+ km)
Ceiling: ceiling and visibility are OK
Clouds: unknown
Weather: no significant weather observed at this time

Forecast for: ZYHB (HARBIN , CN)
Text: TAF ZYHB 190906Z 1912/2012 21004MPS 3000 FU BKN023 TX01/2006Z TNM08/22Z
Forecast period: 1200 UTC 19 February 2019 to 0000 UTC 20 February 2019
Forecast type: FROM: standard forecast or significant change
Winds: from the SSW (210 degrees) at 9 MPH (8 knots; 4.1 m/s)
Visibility: 1.86 miles (2.99 km)
Ceiling: 2300 feet AGL
Clouds: broken clouds at 2300 feet AGL
Weather: FU  (smoke)
Text: TEMPO 1912/1918 1200 -SHSN
Forecast period: 1200 to 1800 UTC 19 February 2019
Forecast type: TEMPORARY: The following changes expected for less than half the time period
Visibility: 0.75 miles (1.21 km)
Ceiling: unknown
Clouds: missing
Weather: -SHSN  (light snow showers)
Text: BECMG 2000/2002 28005MPS
Forecast period: 0000 to 1200 UTC 20 February 2019
Forecast type: BECOMING: Conditions expected to become as follows by 0200 UTC 20 February 2019
Winds: from the W (280 degrees) at 12 MPH (10 knots; 5.1 m/s)
Visibility: 1.86 miles (2.99 km)
Ceiling: 2300 feet AGL
Clouds: broken clouds at 2300 feet AGL
Weather: FU  (smoke)